createdAt,value
2022-09-21T00:00:55.644Z,4.90
2022-09-21T00:04:50.582Z,4.80
2022-09-21T00:08:25.686Z,4.30
2022-09-21T00:12:28.287Z,4.70
2022-09-21T00:16:07.280Z,4.90
2022-09-21T00:19:42.891Z,4.60
2022-09-21T00:23:22.605Z,4.30
2022-09-21T00:27:19.273Z,4.90
2022-09-21T00:30:52.099Z,4.30
2022-09-21T00:34:33.167Z,5.00
2022-09-21T00:38:27.667Z,4.90
2022-09-21T00:41:43.968Z,4.80
2022-09-21T00:45:23.826Z,4.60
2022-09-21T00:49:28.025Z,5.20
2022-09-21T00:53:03.180Z,4.60
2022-09-21T00:56:48.517Z,4.80
2022-09-21T01:00:41.900Z,4.70
2022-09-21T01:04:29.479Z,4.50
2022-09-21T01:08:16.801Z,5.10
2022-09-21T01:12:18.852Z,4.60
2022-09-21T01:16:05.041Z,4.60
2022-09-21T01:20:29.988Z,4.90
2022-09-21T01:24:30.038Z,5.00
2022-09-21T01:28:15.544Z,4.90
2022-09-21T01:31:24.048Z,4.70
2022-09-21T01:35:21.900Z,4.60
2022-09-21T01:39:25.589Z,5.00
2022-09-21T01:42:54.328Z,5.10
2022-09-21T01:46:17.106Z,4.70
2022-09-21T01:49:57.862Z,4.50
2022-09-21T01:53:39.802Z,4.20
2022-09-21T01:57:34.596Z,4.40
2022-09-21T02:00:47.948Z,4.80
2022-09-21T02:04:07.300Z,4.40
2022-09-21T02:07:27.574Z,4.30
2022-09-21T02:11:24.392Z,3.90
2022-09-21T02:14:42.884Z,4.90
2022-09-21T02:18:34.691Z,4.60
2022-09-21T02:21:45.431Z,5.00
2022-09-21T02:25:29.862Z,4.90
2022-09-21T02:29:07.116Z,4.30
2022-09-21T02:32:53.578Z,4.20
2022-09-21T02:36:49.128Z,4.30
2022-09-21T02:41:08.077Z,4.30
2022-09-21T02:44:49.193Z,4.60
2022-09-21T02:48:25.729Z,4.30
2022-09-21T02:52:13.323Z,4.40
2022-09-21T02:55:43.248Z,4.10
2022-09-21T02:59:05.761Z,4.30
2022-09-21T03:03:00.185Z,4.60
2022-09-21T03:06:27.713Z,4.80
2022-09-21T03:09:46.650Z,4.70
2022-09-21T03:13:00.266Z,4.10
2022-09-21T03:17:05.048Z,4.60
2022-09-21T03:20:43.427Z,4.50
2022-09-21T03:24:29.686Z,5.70
2022-09-21T03:28:08.157Z,7.60
2022-09-21T03:31:42.963Z,6.40
2022-09-21T03:35:35.099Z,4.90
2022-09-21T03:39:20.193Z,5.10
2022-09-21T03:43:13.966Z,4.60
2022-09-21T03:46:35.516Z,4.40
2022-09-21T03:50:39.335Z,4.80
2022-09-21T03:53:35.938Z,4.40
2022-09-21T03:57:02.109Z,4.30
2022-09-21T04:00:34.902Z,4.30
2022-09-21T04:03:33.983Z,4.80
2022-09-21T04:07:37.620Z,5.30
2022-09-21T04:11:23.052Z,4.90
2022-09-21T04:14:36.897Z,5.00
2022-09-21T04:18:21.950Z,6.70
2022-09-21T04:21:58.323Z,5.90
2022-09-21T04:25:34.551Z,5.70
2022-09-21T04:28:50.974Z,6.30
2022-09-21T04:32:54.690Z,8.10
2022-09-21T04:36:50.094Z,12.60
2022-09-21T04:40:40.102Z,7.00
2022-09-21T04:44:27.737Z,8.30
2022-09-21T04:48:27.607Z,7.70
2022-09-21T04:52:18.887Z,5.20
2022-09-21T04:56:12.758Z,5.20
2022-09-21T05:00:07.523Z,5.10
2022-09-21T05:03:24.992Z,5.10
2022-09-21T05:07:00.439Z,5.10
2022-09-21T05:10:47.277Z,5.40
2022-09-21T05:14:36.641Z,5.00
2022-09-21T05:21:33.861Z,5.00
2022-09-21T05:25:37.617Z,6.60
2022-09-21T05:29:36.531Z,5.70
2022-09-21T05:33:35.855Z,4.80
2022-09-21T05:37:30.286Z,4.60
2022-09-21T05:41:34.390Z,4.70
2022-09-21T05:45:33.055Z,4.60
2022-09-21T05:49:30.491Z,4.50
2022-09-21T05:53:02.216Z,4.80
2022-09-21T05:57:15.181Z,4.80
2022-09-21T06:01:03.594Z,5.20
2022-09-21T06:04:47.664Z,4.90
2022-09-21T06:08:15.102Z,4.40
2022-09-21T06:12:11.430Z,5.50
2022-09-21T06:15:40.281Z,4.80
2022-09-21T06:19:31.088Z,4.10
2022-09-21T06:23:17.545Z,4.20
2022-09-21T06:27:21.268Z,4.70
2022-09-21T06:31:10.331Z,4.20
2022-09-21T06:34:56.543Z,3.80
2022-09-21T06:38:32.031Z,4.50
2022-09-21T06:42:00.225Z,4.50
2022-09-21T06:45:30.710Z,4.60
2022-09-21T06:49:15.134Z,4.30
2022-09-21T06:52:42.805Z,3.90
2022-09-21T06:56:46.867Z,4.30
2022-09-21T07:00:35.991Z,4.60
2022-09-21T07:04:39.492Z,3.90
2022-09-21T07:12:27.698Z,3.50
2022-09-21T07:15:53.371Z,3.90
2022-09-21T07:19:17.085Z,4.10
2022-09-21T07:22:32.110Z,3.40
2022-09-21T07:26:09.133Z,3.80
2022-09-21T07:29:53.836Z,3.60
2022-09-21T07:37:12.101Z,3.30
2022-09-21T07:43:58.334Z,2.90
2022-09-21T07:47:45.697Z,3.00
2022-09-21T07:51:29.376Z,2.60
2022-09-21T07:55:05.380Z,3.40
2022-09-21T07:58:58.586Z,3.10
2022-09-21T08:02:22.293Z,2.20
2022-09-21T08:05:45.702Z,3.10
2022-09-21T08:09:32.526Z,2.50
2022-09-21T08:13:30.236Z,2.60
2022-09-21T08:20:46.144Z,2.30
2022-09-21T08:24:21.648Z,2.30
2022-09-21T08:27:50.308Z,2.20
2022-09-21T08:30:56.658Z,2.50
2022-09-21T08:34:36.626Z,2.10
2022-09-21T08:38:03.047Z,2.30
2022-09-21T08:41:48.814Z,2.40
2022-09-21T08:45:44.810Z,1.90
2022-09-21T08:49:30.926Z,2.10
2022-09-21T08:52:46.298Z,3.00
2022-09-21T08:56:10.949Z,2.50
2022-09-21T09:00:02.636Z,2.10
2022-09-21T09:03:45.013Z,2.00
2022-09-21T09:07:53.530Z,2.20
2022-09-21T09:11:52.849Z,1.90
2022-09-21T09:15:37.880Z,3.40
2022-09-21T09:19:26.894Z,2.40
2022-09-21T09:23:06.419Z,1.50
2022-09-21T09:26:55.767Z,1.80
2022-09-21T09:30:35.964Z,1.90
2022-09-21T09:34:51.599Z,2.40
2022-09-21T09:38:36.024Z,1.50
2022-09-21T09:42:36.791Z,3.30
2022-09-21T09:46:43.109Z,2.70
2022-09-21T09:50:59.660Z,2.10
2022-09-21T09:54:37.036Z,1.60
2022-09-21T09:58:23.420Z,2.40
2022-09-21T10:02:38.819Z,2.00
2022-09-21T10:06:05.332Z,1.60
2022-09-21T10:09:07.446Z,1.70
2022-09-21T10:12:47.565Z,1.80
2022-09-21T10:16:13.471Z,2.00
2022-09-21T10:19:27.691Z,1.90
2022-09-21T10:23:11.430Z,1.90
2022-09-21T10:26:44.271Z,1.70
2022-09-21T10:30:00.907Z,1.70
2022-09-21T10:33:37.847Z,1.80
2022-09-21T10:37:12.696Z,1.80
2022-09-21T10:40:50.544Z,1.70
2022-09-21T10:43:44.684Z,1.40
2022-09-21T10:47:02.666Z,1.50
2022-09-21T10:50:19.173Z,1.30
2022-09-21T10:53:44.222Z,1.60
2022-09-21T10:56:52.529Z,1.40
2022-09-21T11:00:14.791Z,1.60
2022-09-21T11:03:40.462Z,1.70
2022-09-21T11:06:47.176Z,1.40
2022-09-21T11:10:13.238Z,2.90
2022-09-21T11:13:57.489Z,2.00
2022-09-21T11:17:35.356Z,1.70
2022-09-21T11:21:26.181Z,1.40
2022-09-21T11:25:14.121Z,1.40
2022-09-21T11:28:52.497Z,1.10
2022-09-21T11:32:48.273Z,1.20
2022-09-21T11:36:34.827Z,1.50
2022-09-21T11:40:08.956Z,1.70
2022-09-21T11:43:56.187Z,2.00
2022-09-21T11:47:36.222Z,1.40
2022-09-21T11:51:34.609Z,1.90
2022-09-21T11:55:30.205Z,1.70
2022-09-21T11:59:15.316Z,2.40
2022-09-21T12:02:42.475Z,1.70
2022-09-21T12:07:01.736Z,1.60
2022-09-21T12:10:26.667Z,1.80
2022-09-21T12:14:29.485Z,1.10
2022-09-21T12:21:24.859Z,1.20
2022-09-21T12:25:07.816Z,0.70
2022-09-21T12:28:56.584Z,0.60
2022-09-21T12:32:49.914Z,0.90
2022-09-21T12:36:21.291Z,1.00
2022-09-21T12:40:14.790Z,0.80
2022-09-21T12:44:06.226Z,0.80
2022-09-21T12:47:59.860Z,1.10
2022-09-21T12:51:41.243Z,0.90
2022-09-21T12:55:21.183Z,1.20
2022-09-21T12:58:56.425Z,1.30
2022-09-21T13:02:26.407Z,2.00
2022-09-21T13:06:13.490Z,1.70
2022-09-21T13:09:31.114Z,2.00
2022-09-21T13:13:01.085Z,1.90
2022-09-21T13:16:51.031Z,2.20
2022-09-21T13:20:16.119Z,2.10
2022-09-21T13:23:41.354Z,1.60
2022-09-21T13:27:08.181Z,1.10
2022-09-21T13:31:30.186Z,1.10
2022-09-21T13:34:51.157Z,1.20
2022-09-21T13:38:56.351Z,1.10
2022-09-21T13:43:04.712Z,1.10
2022-09-21T13:47:11.032Z,1.30
2022-09-21T13:50:49.920Z,1.30
2022-09-21T13:54:37.600Z,1.50
2022-09-21T13:58:47.603Z,2.20
2022-09-21T14:02:04.507Z,2.20
2022-09-21T14:05:50.798Z,1.50
2022-09-21T14:10:09.805Z,1.70
2022-09-21T14:14:16.349Z,1.40
2022-09-21T14:18:03.905Z,0.60
2022-09-21T14:21:48.401Z,0.60
2022-09-21T14:25:43.358Z,0.70
2022-09-21T14:28:57.427Z,0.90
2022-09-21T14:32:13.633Z,0.70
2022-09-21T14:35:47.563Z,0.50
2022-09-21T14:39:05.185Z,0.70
2022-09-21T14:42:19.457Z,0.70
2022-09-21T14:45:50.597Z,0.70
2022-09-21T14:49:27.737Z,0.60
2022-09-21T14:52:51.027Z,0.80
2022-09-21T14:56:38.839Z,1.20
2022-09-21T15:00:13.597Z,1.30
2022-09-21T15:04:06.550Z,1.00
2022-09-21T15:07:57.033Z,1.00
2022-09-21T15:11:24.495Z,1.30
2022-09-21T15:15:06.697Z,0.90
2022-09-21T15:19:19.615Z,1.10
2022-09-21T15:22:36.253Z,1.40
2022-09-21T15:26:15.682Z,0.90
2022-09-21T15:29:43.369Z,1.00
2022-09-21T15:33:24.158Z,1.30
2022-09-21T15:37:04.011Z,0.70
2022-09-21T15:40:45.366Z,1.30
2022-09-21T15:43:50.521Z,1.00
2022-09-21T15:47:17.692Z,1.10
2022-09-21T15:50:53.627Z,1.00
2022-09-21T15:54:45.164Z,1.30
2022-09-21T15:58:36.258Z,1.70
2022-09-21T16:02:06.122Z,1.90
2022-09-21T16:05:43.386Z,2.90
2022-09-21T16:09:16.743Z,3.20
2022-09-21T16:13:09.043Z,2.30
2022-09-21T16:16:44.451Z,1.80
2022-09-21T16:21:00.160Z,1.90
2022-09-21T16:24:40.592Z,1.40
2022-09-21T16:27:56.964Z,1.40
2022-09-21T16:31:49.896Z,1.10
2022-09-21T16:35:51.712Z,1.90
2022-09-21T16:39:29.475Z,1.80
2022-09-21T16:43:03.466Z,2.20
2022-09-21T16:46:37.292Z,1.90
2022-09-21T16:50:18.376Z,2.40
2022-09-21T16:53:42.068Z,2.30
2022-09-21T16:57:28.164Z,2.30
2022-09-21T17:04:21.310Z,2.80
2022-09-21T17:07:52.885Z,4.10
2022-09-21T17:11:38.265Z,5.10
2022-09-21T17:15:42.003Z,6.20
2022-09-21T17:19:31.245Z,7.20
2022-09-21T17:23:27.810Z,8.40
2022-09-21T17:27:22.956Z,8.10
2022-09-21T17:30:56.641Z,7.70
2022-09-21T17:35:05.290Z,7.60
2022-09-21T17:38:43.327Z,8.10
2022-09-21T17:42:53.458Z,7.80
2022-09-21T17:46:50.794Z,8.00
2022-09-21T17:50:54.744Z,7.50
2022-09-21T17:54:47.814Z,7.80
2022-09-21T17:58:51.082Z,5.90
2022-09-21T18:02:46.764Z,5.90
2022-09-21T18:06:14.467Z,5.50
2022-09-21T18:10:07.298Z,5.00
2022-09-21T18:13:56.763Z,9.30
2022-09-21T18:17:48.834Z,18.10
2022-09-21T18:21:38.437Z,21.20
2022-09-21T18:25:36.267Z,20.70
2022-09-21T18:29:38.943Z,19.30
2022-09-21T18:33:49.917Z,15.30
2022-09-21T18:37:39.300Z,15.90
2022-09-21T18:41:45.669Z,14.20
2022-09-21T18:45:55.794Z,14.50
2022-09-21T18:49:40.903Z,15.10
2022-09-21T18:53:37.530Z,10.30
2022-09-21T18:57:34.399Z,10.60
2022-09-21T19:01:31.005Z,8.40
2022-09-21T19:09:01.403Z,6.20
2022-09-21T19:13:08.256Z,6.90
2022-09-21T19:17:15.022Z,6.80
2022-09-21T19:21:30.940Z,5.50
2022-09-21T19:25:30.726Z,5.20
2022-09-21T19:29:39.806Z,5.50
2022-09-21T19:33:48.855Z,4.70
2022-09-21T19:37:44.259Z,4.60
2022-09-21T19:41:10.540Z,4.10
2022-09-21T19:45:14.073Z,4.30
2022-09-21T19:49:08.515Z,3.70
2022-09-21T19:53:06.583Z,3.50
2022-09-21T19:57:09.011Z,3.80
2022-09-21T20:00:38.232Z,3.30
2022-09-21T20:04:07.268Z,4.00
2022-09-21T20:08:23.078Z,2.80
2022-09-21T20:12:31.915Z,3.30
2022-09-21T20:16:24.817Z,4.30
2022-09-21T20:20:18.514Z,3.60
2022-09-21T20:24:17.608Z,3.20
2022-09-21T20:28:07.143Z,3.50
2022-09-21T20:31:47.757Z,2.80
2022-09-21T20:35:57.508Z,2.70
2022-09-21T20:39:52.363Z,2.80
2022-09-21T20:43:17.644Z,2.90
2022-09-21T20:46:48.942Z,2.80
2022-09-21T20:50:32.570Z,3.00
2022-09-21T20:54:18.425Z,2.70
2022-09-21T20:57:53.210Z,3.30
2022-09-21T21:01:46.578Z,4.00
2022-09-21T21:05:25.370Z,3.70
2022-09-21T21:08:53.772Z,4.10
2022-09-21T21:12:43.410Z,3.30
2022-09-21T21:16:30.714Z,3.60
2022-09-21T21:20:12.409Z,3.50
2022-09-21T21:24:06.092Z,3.20
2022-09-21T21:27:58.579Z,3.00
2022-09-21T21:31:47.352Z,3.80
2022-09-21T21:35:42.227Z,3.60
2022-09-21T21:39:38.674Z,3.80
2022-09-21T21:43:31.021Z,3.40
2022-09-21T21:47:39.434Z,3.50
2022-09-21T21:51:39.024Z,3.40
2022-09-21T21:55:42.727Z,3.30
2022-09-21T21:59:23.772Z,3.40
2022-09-21T22:03:18.526Z,2.80
2022-09-21T22:06:36.021Z,3.20
2022-09-21T22:10:40.129Z,3.60
2022-09-21T22:14:08.666Z,3.60
2022-09-21T22:17:34.650Z,3.60
2022-09-21T22:21:26.939Z,3.20
2022-09-21T22:25:02.093Z,3.00
2022-09-21T22:29:05.910Z,3.30
2022-09-21T22:32:59.540Z,3.50
2022-09-21T22:36:56.900Z,3.50
2022-09-21T22:40:34.427Z,3.60
2022-09-21T22:43:59.141Z,4.00
2022-09-21T22:47:47.021Z,3.50
2022-09-21T22:51:24.347Z,3.60
2022-09-21T22:55:28.066Z,3.70
2022-09-21T22:59:02.602Z,3.70
2022-09-21T23:03:06.433Z,4.50
2022-09-21T23:06:56.306Z,3.60
2022-09-21T23:10:33.834Z,4.40
2022-09-21T23:14:39.745Z,4.10
2022-09-21T23:18:27.720Z,4.40
2022-09-21T23:22:14.044Z,4.00
2022-09-21T23:26:10.112Z,3.70
2022-09-21T23:30:12.613Z,4.40
2022-09-21T23:34:12.777Z,5.30
2022-09-21T23:38:09.632Z,4.00
2022-09-21T23:42:22.940Z,3.90
2022-09-21T23:46:00.690Z,4.00
2022-09-21T23:49:32.282Z,3.90
2022-09-21T23:52:55.760Z,4.60
